createdAt,value
2023-03-20T00:02:19.121Z,101451.41
2023-03-20T00:04:45.734Z,101451.41
2023-03-20T00:07:12.658Z,101459.25
2023-03-20T00:09:39.495Z,101458.50
2023-03-20T00:12:06.272Z,101462.16
2023-03-20T00:14:34.491Z,101457.31
2023-03-20T00:17:01.966Z,101463.88
2023-03-20T00:19:30.946Z,101451.38
2023-03-20T00:21:57.662Z,101462.16
2023-03-20T00:24:24.762Z,101455.66
2023-03-20T00:26:52.962Z,101461.47
2023-03-20T00:29:27.576Z,101461.22
2023-03-20T00:31:55.055Z,101469.47
2023-03-20T00:34:24.218Z,101477.84
2023-03-20T00:36:51.679Z,101476.31
2023-03-20T00:39:18.185Z,101471.72
2023-03-20T00:41:51.591Z,101480.84
2023-03-20T00:44:34.147Z,101481.31
2023-03-20T00:47:13.173Z,101477.53
2023-03-20T00:49:40.262Z,101475.88
2023-03-20T00:52:06.699Z,101482.94
2023-03-20T00:54:33.092Z,101488.38
2023-03-20T00:57:22.502Z,101479.97
2023-03-20T01:00:14.531Z,101488.13
2023-03-20T01:02:41.069Z,101486.16
2023-03-20T01:05:08.180Z,101495.13
2023-03-20T01:07:34.557Z,101493.16
2023-03-20T01:10:01.157Z,101494.56
2023-03-20T01:12:28.213Z,101498.22
2023-03-20T01:14:58.627Z,101489.25
2023-03-20T01:17:27.352Z,101489.47
2023-03-20T01:19:53.960Z,101491.69
2023-03-20T01:22:20.475Z,101484.63
2023-03-20T01:24:47.337Z,101486.75
2023-03-20T01:27:15.812Z,101480.00
2023-03-20T01:29:42.216Z,101480.50
2023-03-20T01:32:12.548Z,101487.78
2023-03-20T01:34:39.087Z,101487.94
2023-03-20T01:37:12.710Z,101480.84
2023-03-20T01:39:39.085Z,101481.31
2023-03-20T01:42:07.037Z,101494.31
2023-03-20T01:44:35.774Z,101486.63
2023-03-20T01:47:04.510Z,101481.31
2023-03-20T01:50:01.762Z,101476.91
2023-03-20T01:52:28.344Z,101473.38
2023-03-20T01:54:54.889Z,101467.13
2023-03-20T01:57:24.915Z,101468.69
2023-03-20T02:00:03.181Z,101470.22
2023-03-20T02:02:32.127Z,101470.28
2023-03-20T02:05:03.937Z,101468.66
2023-03-20T02:07:33.065Z,101462.16
2023-03-20T02:09:59.691Z,101473.38
2023-03-20T02:12:26.394Z,101470.88
2023-03-20T02:14:53.163Z,101475.34
2023-03-20T02:17:21.290Z,101468.13
2023-03-20T02:20:09.337Z,101466.84
2023-03-20T02:23:00.730Z,101472.78
2023-03-20T02:25:45.780Z,101482.34
2023-03-20T02:28:34.181Z,101475.72
2023-03-20T02:31:17.708Z,101469.91
2023-03-20T02:34:12.253Z,101478.91
2023-03-20T02:37:16.612Z,101487.19
2023-03-20T02:40:05.950Z,101489.31
2023-03-20T02:42:47.495Z,101483.75
2023-03-20T02:45:18.975Z,101468.94
2023-03-20T02:47:57.334Z,101462.47
2023-03-20T02:50:42.965Z,101473.50
2023-03-20T02:53:12.807Z,101479.59
2023-03-20T02:55:49.372Z,101476.50
2023-03-20T02:58:22.546Z,101470.63
2023-03-20T03:01:04.221Z,101467.31
2023-03-20T03:03:38.339Z,101463.25
2023-03-20T03:06:17.722Z,101467.75
2023-03-20T03:08:49.673Z,101485.13
2023-03-20T03:11:17.536Z,101484.16
2023-03-20T03:13:48.829Z,101479.53
2023-03-20T03:16:26.624Z,101485.56
2023-03-20T03:19:06.706Z,101487.84
2023-03-20T03:21:35.059Z,101488.28
2023-03-20T03:24:02.619Z,101492.53
2023-03-20T03:26:35.307Z,101500.06
2023-03-20T03:29:12.569Z,101494.50
2023-03-20T03:31:39.639Z,101502.19
2023-03-20T03:34:06.453Z,101503.00
2023-03-20T03:36:54.503Z,101513.03
2023-03-20T03:39:36.923Z,101498.47
2023-03-20T03:42:28.010Z,101485.38
2023-03-20T03:45:17.311Z,101468.00
2023-03-20T03:47:50.300Z,101456.63
2023-03-20T03:50:21.899Z,101457.31
2023-03-20T03:52:50.398Z,101462.53
2023-03-20T03:55:23.895Z,101459.94
2023-03-20T03:57:56.474Z,101458.44
2023-03-20T04:00:25.987Z,101454.75
2023-03-20T04:02:56.139Z,101461.47
2023-03-20T04:05:27.663Z,101478.22
2023-03-20T04:07:56.400Z,101474.91
2023-03-20T04:10:22.729Z,101467.22
2023-03-20T04:12:49.104Z,101477.81
2023-03-20T04:15:16.518Z,101476.56
2023-03-20T04:17:44.458Z,101487.56
2023-03-20T04:20:12.276Z,101492.16
2023-03-20T04:22:38.804Z,101490.13
2023-03-20T04:25:07.098Z,101484.84
2023-03-20T04:27:33.516Z,101494.50
2023-03-20T04:29:59.900Z,101492.25
2023-03-20T04:32:26.341Z,101506.63
2023-03-20T04:34:53.434Z,101496.00
2023-03-20T04:37:19.891Z,101494.00
2023-03-20T04:39:46.397Z,101489.41
2023-03-20T04:42:12.791Z,101495.69
2023-03-20T04:44:39.130Z,101491.84
2023-03-20T04:47:05.570Z,101484.56
2023-03-20T04:49:31.942Z,101466.56
2023-03-20T04:51:58.317Z,101473.81
2023-03-20T04:54:25.208Z,101464.16
2023-03-20T04:56:51.674Z,101473.75
2023-03-20T04:59:18.270Z,101458.28
2023-03-20T05:01:44.640Z,101467.50
2023-03-20T05:04:11.156Z,101468.97
2023-03-20T05:06:37.556Z,101472.16
2023-03-20T05:09:04.165Z,101473.97
2023-03-20T05:11:30.600Z,101472.28
2023-03-20T05:13:57.222Z,101458.91
2023-03-20T05:16:23.873Z,101469.16
2023-03-20T05:18:50.452Z,101469.16
2023-03-20T05:21:16.881Z,101464.84
2023-03-20T05:23:43.355Z,101462.34
2023-03-20T05:26:09.674Z,101458.13
2023-03-20T05:28:37.345Z,101457.75
2023-03-20T05:31:04.115Z,101457.00
2023-03-20T05:33:31.686Z,101462.03
2023-03-20T05:35:58.159Z,101455.41
2023-03-20T05:38:25.742Z,101458.56
2023-03-20T05:40:59.194Z,101455.84
2023-03-20T05:43:25.985Z,101460.66
2023-03-20T05:45:53.327Z,101467.50
2023-03-20T05:48:19.730Z,101464.19
2023-03-20T05:50:46.282Z,101475.28
2023-03-20T05:53:12.738Z,101489.72
2023-03-20T05:55:39.114Z,101495.22
2023-03-20T05:58:06.201Z,101485.78
2023-03-20T06:00:32.623Z,101486.25
2023-03-20T06:02:59.260Z,101484.56
2023-03-20T06:05:26.069Z,101485.19
2023-03-20T06:07:52.462Z,101490.56
2023-03-20T06:10:20.728Z,101483.53
2023-03-20T06:12:47.142Z,101486.41
2023-03-20T06:15:13.530Z,101482.66
2023-03-20T06:17:39.990Z,101485.97
2023-03-20T06:20:07.303Z,101488.28
2023-03-20T06:22:33.821Z,101487.63
2023-03-20T06:25:01.300Z,101485.97
2023-03-20T06:27:27.712Z,101484.25
2023-03-20T06:29:54.089Z,101485.91
2023-03-20T06:32:20.828Z,101487.09
2023-03-20T06:34:47.725Z,101481.84
2023-03-20T06:37:14.070Z,101477.53
2023-03-20T06:39:41.662Z,101486.00
2023-03-20T06:42:08.471Z,101488.28
2023-03-20T06:44:34.772Z,101484.81
2023-03-20T06:47:01.152Z,101481.03
2023-03-20T06:49:28.084Z,101484.81
2023-03-20T06:51:54.534Z,101482.47
2023-03-20T06:54:21.027Z,101487.63
2023-03-20T06:56:47.445Z,101484.75
2023-03-20T06:59:13.945Z,101495.50
2023-03-20T07:01:40.459Z,101491.22
2023-03-20T07:04:07.541Z,101501.03
2023-03-20T07:06:34.072Z,101503.53
2023-03-20T07:09:01.384Z,101504.25
2023-03-20T07:11:28.492Z,101513.47
2023-03-20T07:13:54.887Z,101520.09
2023-03-20T07:16:21.648Z,101525.09
2023-03-20T07:18:48.074Z,101535.69
2023-03-20T07:21:20.286Z,101544.88
2023-03-20T07:23:46.949Z,101545.97
2023-03-20T07:26:13.739Z,101546.97
2023-03-20T07:28:40.202Z,101549.25
2023-03-20T07:31:06.732Z,101546.84
2023-03-20T07:33:33.170Z,101541.25
2023-03-20T07:35:59.677Z,101547.44
2023-03-20T07:38:26.108Z,101542.69
2023-03-20T07:40:54.598Z,101547.91
2023-03-20T07:43:21.195Z,101548.50
2023-03-20T07:45:47.666Z,101557.09
2023-03-20T07:48:14.032Z,101553.34
2023-03-20T07:50:40.484Z,101551.88
2023-03-20T07:53:07.852Z,101553.66
2023-03-20T07:55:34.467Z,101568.88
2023-03-20T07:58:01.076Z,101563.59
2023-03-20T08:00:28.348Z,101555.75
2023-03-20T08:02:56.931Z,101556.38
2023-03-20T08:05:26.819Z,101560.41
2023-03-20T08:07:53.472Z,101569.78
2023-03-20T08:10:19.922Z,101569.84
2023-03-20T08:12:46.504Z,101574.38
2023-03-20T08:15:13.039Z,101577.56
2023-03-20T08:17:43.762Z,101578.16
2023-03-20T08:20:11.100Z,101581.41
2023-03-20T08:22:37.455Z,101580.97
2023-03-20T08:25:04.123Z,101578.84
2023-03-20T08:27:31.054Z,101583.38
2023-03-20T08:29:57.411Z,101579.19
2023-03-20T08:32:23.815Z,101589.53
2023-03-20T08:34:50.242Z,101581.69
2023-03-20T08:37:16.845Z,101586.69
2023-03-20T08:39:43.307Z,101574.97
2023-03-20T08:42:09.706Z,101585.53
2023-03-20T08:44:36.216Z,101590.28
2023-03-20T08:47:03.459Z,101589.00
2023-03-20T08:49:29.900Z,101591.94
2023-03-20T08:51:56.294Z,101590.66
2023-03-20T08:54:22.868Z,101596.75
2023-03-20T08:56:49.276Z,101598.75
2023-03-20T08:59:15.610Z,101591.19
2023-03-20T09:01:49.308Z,101595.56
2023-03-20T09:04:16.985Z,101594.91
2023-03-20T09:06:43.312Z,101585.81
2023-03-20T09:09:09.848Z,101596.25
2023-03-20T09:11:36.608Z,101594.50
2023-03-20T09:14:02.966Z,101586.97
2023-03-20T09:16:29.462Z,101596.47
2023-03-20T09:18:56.223Z,101594.19
2023-03-20T09:21:22.657Z,101596.47
2023-03-20T09:23:49.025Z,101592.06
2023-03-20T09:26:15.578Z,101592.69
2023-03-20T09:28:42.119Z,101591.63
2023-03-20T09:31:08.492Z,101591.38
2023-03-20T09:33:35.013Z,101593.88
2023-03-20T09:36:01.925Z,101586.78
2023-03-20T09:38:28.688Z,101595.69
2023-03-20T09:40:58.703Z,101590.16
2023-03-20T09:43:56.386Z,101599.97
2023-03-20T09:46:28.793Z,101589.53
2023-03-20T09:49:07.701Z,101597.88
2023-03-20T09:51:56.339Z,101599.94
2023-03-20T09:54:53.645Z,101593.53
2023-03-20T09:57:32.319Z,101587.66
2023-03-20T10:00:03.389Z,101590.44
2023-03-20T10:02:50.793Z,101594.94
2023-03-20T10:05:23.277Z,101593.06
2023-03-20T10:07:49.767Z,101587.53
2023-03-20T10:10:20.217Z,101592.88
2023-03-20T10:13:09.455Z,101590.22
2023-03-20T10:16:03.274Z,101587.84
2023-03-20T10:18:33.944Z,101581.00
2023-03-20T10:21:15.359Z,101583.66
2023-03-20T10:23:54.437Z,101582.91
2023-03-20T10:26:23.661Z,101577.59
2023-03-20T10:29:15.382Z,101587.56
2023-03-20T10:32:03.142Z,101587.91
2023-03-20T10:34:40.450Z,101587.91
2023-03-20T10:37:31.638Z,101589.47
2023-03-20T10:40:39.348Z,101591.59
2023-03-20T10:43:17.136Z,101594.47
2023-03-20T10:45:48.426Z,101589.03
2023-03-20T10:48:31.129Z,101584.19
2023-03-20T10:51:02.003Z,101586.03
2023-03-20T10:53:49.396Z,101588.09
2023-03-20T10:56:40.610Z,101580.25
2023-03-20T10:59:12.363Z,101581.63
2023-03-20T11:01:38.668Z,101574.53
2023-03-20T11:04:06.178Z,101574.06
2023-03-20T11:06:41.597Z,101577.53
2023-03-20T11:09:17.697Z,101577.66
2023-03-20T11:11:46.187Z,101572.34
2023-03-20T11:14:18.934Z,101583.09
2023-03-20T11:16:56.553Z,101569.88
2023-03-20T11:19:23.918Z,101577.94
2023-03-20T11:21:55.989Z,101565.66
2023-03-20T11:24:41.943Z,101569.44
2023-03-20T11:27:15.990Z,101570.25
2023-03-20T11:29:45.738Z,101571.22
2023-03-20T11:32:26.952Z,101549.47
2023-03-20T11:34:57.434Z,101545.22
2023-03-20T11:37:28.946Z,101549.28
2023-03-20T11:40:08.946Z,101549.16
2023-03-20T11:42:37.069Z,101543.38
2023-03-20T11:45:07.013Z,101535.94
2023-03-20T11:47:36.068Z,101545.81
2023-03-20T11:50:06.359Z,101535.25
2023-03-20T11:52:38.820Z,101538.56
2023-03-20T11:55:23.301Z,101533.47
2023-03-20T11:57:49.706Z,101536.78
2023-03-20T12:00:36.067Z,101529.34
2023-03-20T12:03:03.689Z,101536.09
2023-03-20T12:05:41.936Z,101534.16
2023-03-20T12:08:27.773Z,101539.59
2023-03-20T12:10:59.720Z,101535.69
2023-03-20T12:13:33.207Z,101535.34
2023-03-20T12:16:04.705Z,101536.53
2023-03-20T12:18:36.091Z,101526.97
2023-03-20T12:21:28.826Z,101530.66
2023-03-20T12:24:04.501Z,101527.00
2023-03-20T12:26:34.730Z,101520.72
2023-03-20T12:29:07.954Z,101517.53
2023-03-20T12:31:50.117Z,101522.16
2023-03-20T12:34:41.451Z,101527.72
2023-03-20T12:37:12.089Z,101516.00
2023-03-20T12:39:46.023Z,101515.75
2023-03-20T12:42:21.468Z,101508.34
2023-03-20T12:44:58.784Z,101511.63
2023-03-20T12:47:52.333Z,101510.66
2023-03-20T12:50:36.888Z,101510.78
2023-03-20T12:53:17.413Z,101508.28
2023-03-20T12:56:02.239Z,101503.56
2023-03-20T12:58:51.925Z,101512.94
2023-03-20T13:01:45.634Z,101502.31
2023-03-20T13:04:43.213Z,101499.69
2023-03-20T13:07:21.700Z,101505.47
2023-03-20T13:10:21.461Z,101497.47
2023-03-20T13:13:06.377Z,101486.94
2023-03-20T13:15:42.142Z,101488.56
2023-03-20T13:18:11.665Z,101492.97
2023-03-20T13:20:51.481Z,101495.56
2023-03-20T13:23:36.165Z,101484.81
2023-03-20T13:26:50.948Z,101488.84
2023-03-20T13:29:39.007Z,101486.59
2023-03-20T13:32:36.254Z,101487.19
2023-03-20T13:35:42.204Z,101477.00
2023-03-20T13:38:21.622Z,101480.78
2023-03-20T13:40:56.278Z,101475.72
2023-03-20T13:43:31.920Z,101473.31
2023-03-20T13:46:07.137Z,101468.47
2023-03-20T13:48:37.847Z,101472.75
2023-03-20T13:51:19.536Z,101461.22
2023-03-20T13:54:18.386Z,101465.63
2023-03-20T13:56:44.710Z,101467.38
2023-03-20T13:59:36.166Z,101457.00
2023-03-20T14:02:26.950Z,101456.41
2023-03-20T14:05:04.104Z,101446.44
2023-03-20T14:07:36.839Z,101444.31
2023-03-20T14:10:21.501Z,101447.75
2023-03-20T14:12:50.227Z,101445.16
2023-03-20T14:15:19.549Z,101444.59
2023-03-20T14:17:48.760Z,101441.50
2023-03-20T14:20:36.970Z,101444.31
2023-03-20T14:23:04.877Z,101453.44
2023-03-20T14:25:41.939Z,101445.63
2023-03-20T14:28:11.609Z,101456.66
2023-03-20T14:30:39.930Z,101447.63
2023-03-20T14:33:07.716Z,101446.13
2023-03-20T14:35:39.540Z,101448.00
2023-03-20T14:38:31.018Z,101445.78
2023-03-20T14:41:11.677Z,101440.78
2023-03-20T14:44:00.024Z,101439.47
2023-03-20T14:46:26.337Z,101436.41
2023-03-20T14:48:54.636Z,101447.31
2023-03-20T14:51:39.387Z,101439.38
2023-03-20T14:54:20.999Z,101434.03
2023-03-20T14:56:52.030Z,101432.00
2023-03-20T14:59:22.633Z,101417.00
2023-03-20T15:02:26.267Z,101420.69
2023-03-20T15:04:53.095Z,101419.63
2023-03-20T15:07:25.308Z,101419.97
2023-03-20T15:09:56.657Z,101422.09
2023-03-20T15:12:28.884Z,101409.81
2023-03-20T15:15:03.955Z,101414.88
2023-03-20T15:17:47.498Z,101413.34
2023-03-20T15:20:24.772Z,101419.50
2023-03-20T15:22:58.000Z,101414.50
2023-03-20T15:25:45.172Z,101409.41
2023-03-20T15:28:22.613Z,101409.28
2023-03-20T15:30:51.397Z,101407.13
2023-03-20T15:33:26.419Z,101413.75
2023-03-20T15:35:53.242Z,101404.88
2023-03-20T15:38:20.821Z,101401.06
2023-03-20T15:40:51.391Z,101404.88
2023-03-20T15:43:24.290Z,101395.28
2023-03-20T15:46:02.859Z,101396.94
2023-03-20T15:48:36.642Z,101392.16
2023-03-20T15:51:04.980Z,101390.31
2023-03-20T15:53:35.724Z,101379.56
2023-03-20T15:56:17.190Z,101380.28
2023-03-20T15:58:46.211Z,101379.56
2023-03-20T16:01:18.557Z,101386.16
2023-03-20T16:03:45.122Z,101383.78
2023-03-20T16:06:16.324Z,101380.03
2023-03-20T16:08:42.743Z,101381.06
2023-03-20T16:11:15.424Z,101378.94
2023-03-20T16:13:46.434Z,101383.31
2023-03-20T16:16:18.944Z,101373.50
2023-03-20T16:18:48.017Z,101374.47
2023-03-20T16:21:26.145Z,101380.84
2023-03-20T16:23:55.833Z,101369.53
2023-03-20T16:26:24.378Z,101366.78
2023-03-20T16:28:56.469Z,101371.16
2023-03-20T16:31:28.683Z,101360.25
2023-03-20T16:33:59.856Z,101359.44
2023-03-20T16:36:30.545Z,101348.06
2023-03-20T16:39:17.127Z,101341.78
2023-03-20T16:41:45.532Z,101352.56
2023-03-20T16:44:23.285Z,101339.84
2023-03-20T16:47:01.074Z,101334.91
2023-03-20T16:49:29.599Z,101347.81
2023-03-20T16:51:59.659Z,101347.81
2023-03-20T16:54:30.644Z,101345.63
2023-03-20T16:56:57.672Z,101348.69
2023-03-20T16:59:25.583Z,101346.09
2023-03-20T17:01:54.104Z,101349.28
2023-03-20T17:04:42.490Z,101350.38
2023-03-20T17:07:18.342Z,101343.25
2023-03-20T17:09:53.630Z,101352.75
2023-03-20T17:12:20.055Z,101357.25
2023-03-20T17:14:46.536Z,101348.00
2023-03-20T17:17:19.544Z,101353.09
2023-03-20T17:19:46.944Z,101357.69
2023-03-20T17:22:15.834Z,101348.47
2023-03-20T17:24:42.472Z,101352.25
2023-03-20T17:27:12.015Z,101355.22
2023-03-20T17:29:39.451Z,101350.38
2023-03-20T17:32:14.276Z,101354.97
2023-03-20T17:34:41.088Z,101354.38
2023-03-20T17:37:13.447Z,101349.19
2023-03-20T17:39:40.457Z,101354.03
2023-03-20T17:42:24.463Z,101363.28
2023-03-20T17:44:50.863Z,101373.72
2023-03-20T17:47:20.937Z,101371.56
2023-03-20T17:49:47.760Z,101385.56
2023-03-20T17:52:19.801Z,101386.13
2023-03-20T17:54:46.955Z,101388.03
2023-03-20T17:57:22.456Z,101390.53
2023-03-20T17:59:49.999Z,101390.53
2023-03-20T18:02:18.192Z,101397.91
2023-03-20T18:04:45.777Z,101398.00
2023-03-20T18:07:12.677Z,101389.34
2023-03-20T18:09:43.563Z,101390.69
2023-03-20T18:12:14.343Z,101391.00
2023-03-20T18:14:42.172Z,101383.22
2023-03-20T18:17:10.335Z,101387.59
2023-03-20T18:19:36.713Z,101388.66
2023-03-20T18:22:04.176Z,101385.00
2023-03-20T18:24:30.882Z,101387.50
2023-03-20T18:26:57.382Z,101385.72
2023-03-20T18:29:23.728Z,101384.69
2023-03-20T18:31:50.392Z,101391.19
2023-03-20T18:34:17.148Z,101397.44
2023-03-20T18:36:45.573Z,101393.66
2023-03-20T18:39:19.831Z,101390.94
2023-03-20T18:41:46.436Z,101390.81
2023-03-20T18:44:13.326Z,101385.69
2023-03-20T18:46:40.394Z,101387.97
2023-03-20T18:49:07.066Z,101377.53
2023-03-20T18:51:33.562Z,101377.78
2023-03-20T18:54:00.155Z,101381.56
2023-03-20T18:56:28.242Z,101374.00
2023-03-20T18:58:54.706Z,101381.69
2023-03-20T19:01:21.449Z,101381.97
2023-03-20T19:03:48.152Z,101379.81
2023-03-20T19:06:20.514Z,101377.69
2023-03-20T19:08:48.760Z,101372.81
2023-03-20T19:11:17.889Z,101374.97
2023-03-20T19:13:49.468Z,101374.69
2023-03-20T19:16:37.862Z,101374.81
2023-03-20T19:19:06.242Z,101373.19
2023-03-20T19:21:34.392Z,101373.41
2023-03-20T19:24:04.588Z,101379.09
2023-03-20T19:26:32.524Z,101385.28
2023-03-20T19:29:01.178Z,101376.25
2023-03-20T19:31:28.489Z,101374.13
2023-03-20T19:33:56.570Z,101379.91
2023-03-20T19:36:27.274Z,101375.53
2023-03-20T19:38:54.673Z,101371.38
2023-03-20T19:41:21.291Z,101371.50
2023-03-20T19:43:52.865Z,101367.84
2023-03-20T19:46:38.258Z,101371.53
2023-03-20T19:49:06.436Z,101367.19
2023-03-20T19:51:33.149Z,101365.50
2023-03-20T19:53:59.606Z,101363.38
2023-03-20T19:56:27.037Z,101355.78
2023-03-20T19:58:53.504Z,101356.03
2023-03-20T20:01:23.420Z,101359.59
2023-03-20T20:03:53.368Z,101359.59
2023-03-20T20:06:22.186Z,101356.06
2023-03-20T20:08:50.436Z,101352.41
2023-03-20T20:11:18.476Z,101356.06
2023-03-20T20:14:04.718Z,101352.06
2023-03-20T20:16:32.728Z,101362.44
2023-03-20T20:18:59.172Z,101357.81
2023-03-20T20:22:16.855Z,101356.56
2023-03-20T20:24:12.374Z,101357.16
2023-03-20T20:26:45.254Z,101354.88
2023-03-20T20:29:15.821Z,101350.88
2023-03-20T20:31:43.983Z,101360.25
2023-03-20T20:39:47.615Z,101346.63
2023-03-20T20:42:14.544Z,101354.31
2023-03-20T20:44:40.957Z,101354.78
2023-03-20T20:47:08.162Z,101349.25
2023-03-20T20:49:35.007Z,101344.31
2023-03-20T20:52:01.478Z,101348.91
2023-03-20T20:54:28.841Z,101336.84
2023-03-20T20:56:56.184Z,101346.53
2023-03-20T20:59:23.182Z,101343.81
2023-03-20T21:01:50.577Z,101349.50
2023-03-20T21:04:17.146Z,101338.16
2023-03-20T21:07:08.168Z,101342.41
2023-03-20T21:09:30.202Z,101345.38
2023-03-20T21:11:56.677Z,101347.34
2023-03-20T21:14:23.248Z,101343.59
2023-03-20T21:16:50.273Z,101340.03
2023-03-20T21:19:16.717Z,101344.06
2023-03-20T21:21:43.121Z,101348.91
2023-03-20T21:24:30.547Z,101352.09
2023-03-20T21:27:03.064Z,101349.75
2023-03-20T21:29:29.508Z,101349.63
2023-03-20T21:31:56.096Z,101354.09
2023-03-20T21:34:22.757Z,101355.41
2023-03-20T21:36:51.368Z,101352.56
2023-03-20T21:39:18.628Z,101341.47
2023-03-20T21:41:45.986Z,101352.09
2023-03-20T21:44:17.726Z,101352.78
2023-03-20T22:04:00.531Z,101343.47
2023-03-20T22:31:55.237Z,101348.81
2023-03-20T22:34:46.121Z,101352.56
2023-03-20T22:45:10.633Z,101346.19
2023-03-20T22:47:37.611Z,101351.16
2023-03-20T22:50:05.281Z,101346.91
2023-03-20T22:52:47.744Z,101343.94
2023-03-20T22:55:16.510Z,101348.09
2023-03-20T22:57:52.847Z,101340.41
2023-03-20T23:00:27.025Z,101337.69
2023-03-20T23:02:57.430Z,101335.06
2023-03-20T23:05:26.984Z,101333.44
2023-03-20T23:07:53.319Z,101330.59
2023-03-20T23:10:19.678Z,101332.94
2023-03-20T23:12:46.064Z,101332.34
2023-03-20T23:15:12.648Z,101329.66
2023-03-20T23:17:39.012Z,101333.75
2023-03-20T23:20:12.320Z,101326.69
2023-03-20T23:22:40.542Z,101316.53
2023-03-20T23:25:23.941Z,101320.66
2023-03-20T23:27:54.591Z,101320.91
2023-03-20T23:30:23.380Z,101313.47
2023-03-20T23:32:51.578Z,101310.38
2023-03-20T23:35:18.619Z,101321.63
2023-03-20T23:37:44.979Z,101314.84
2023-03-20T23:40:12.030Z,101315.69
2023-03-20T23:42:38.454Z,101310.00
2023-03-20T23:45:19.269Z,101315.31
2023-03-20T23:47:48.025Z,101303.41
2023-03-20T23:50:26.397Z,101299.50
2023-03-20T23:53:03.439Z,101300.91
2023-03-20T23:55:35.562Z,101298.09
2023-03-20T23:58:02.394Z,101292.66
